Terminal Aerodrome Forecast
Issued by NWS Charleston, WV

Current Version | Previous Version | Graphics & Text | Print | Product List | Glossary On
Versions: 1 2 3 4 5 6 7 8 9 10 11 12 13 14 15 16 17 18 19 20 21 22 23 24 25 26
000
FTUS41 KRLX 210309 AAA
TAFEKN
TAF AMD
KEKN 210309Z 2103/2124 00000KT P6SM SCT200
     FM210700 00000KT 5SM BR SCT200
     FM211000 00000KT 2SM BR FEW001
     FM211200 VRB03KT 5SM BR SCT050
     FM211300 26004KT P6SM SCT040=

USA.gov is the U.S. government's official web portal to all federal, state and local government web resources and services.